createdAt,value
2023-03-06T00:01:38.932Z,68.15
2023-03-06T00:04:23.140Z,67.92
2023-03-06T00:07:05.973Z,68.13
2023-03-06T00:09:48.783Z,68.01
2023-03-06T00:12:31.588Z,67.87
2023-03-06T00:15:15.717Z,67.72
2023-03-06T00:17:58.629Z,67.74
2023-03-06T00:20:44.642Z,67.71
2023-03-06T00:23:27.628Z,67.82
2023-03-06T00:26:10.934Z,67.91
2023-03-06T00:28:55.925Z,67.61
2023-03-06T00:31:38.786Z,68.02
2023-03-06T00:34:21.594Z,67.94
2023-03-06T00:37:05.864Z,68.07
2023-03-06T00:39:49.511Z,68.04
2023-03-06T00:42:32.334Z,67.91
2023-03-06T00:45:15.839Z,67.91
2023-03-06T00:47:58.692Z,67.95
2023-03-06T00:50:41.510Z,68.01
2023-03-06T00:53:26.285Z,67.68
2023-03-06T00:56:09.538Z,67.80
2023-03-06T00:58:52.422Z,67.91
2023-03-06T01:01:35.223Z,68.09
2023-03-06T01:04:18.094Z,67.88
2023-03-06T01:07:00.932Z,68.05
2023-03-06T01:09:45.119Z,67.94
2023-03-06T01:12:27.998Z,67.76
2023-03-06T01:15:12.226Z,67.99
2023-03-06T01:17:55.294Z,68.13
2023-03-06T01:20:38.159Z,67.93
2023-03-06T01:23:20.982Z,67.91
2023-03-06T01:26:05.542Z,68.21
2023-03-06T01:28:48.229Z,68.46
2023-03-06T01:31:31.022Z,68.39
2023-03-06T01:34:13.874Z,68.43
2023-03-06T01:36:56.695Z,68.53
2023-03-06T01:39:39.483Z,68.45
2023-03-06T01:42:23.660Z,68.29
2023-03-06T01:45:09.366Z,68.28
2023-03-06T01:47:52.757Z,68.46
2023-03-06T01:50:35.580Z,68.47
2023-03-06T01:53:20.672Z,68.50
2023-03-06T01:56:03.777Z,68.68
2023-03-06T01:58:49.852Z,68.56
2023-03-06T02:01:33.917Z,68.46
2023-03-06T02:04:18.578Z,68.73
2023-03-06T02:07:04.786Z,68.69
2023-03-06T02:09:49.789Z,68.75
2023-03-06T02:12:32.960Z,68.84
2023-03-06T02:15:20.392Z,68.90
2023-03-06T02:18:03.291Z,68.71
2023-03-06T02:20:50.355Z,68.67
2023-03-06T02:23:40.040Z,68.73
2023-03-06T02:26:27.461Z,68.91
2023-03-06T02:29:10.939Z,68.76
2023-03-06T02:31:53.739Z,68.79
2023-03-06T02:34:58.051Z,68.87
2023-03-06T02:37:40.816Z,68.59
2023-03-06T02:40:24.412Z,68.40
2023-03-06T02:43:08.814Z,68.55
2023-03-06T02:45:52.651Z,68.27
2023-03-06T02:48:35.662Z,68.65
2023-03-06T02:51:18.568Z,68.54
2023-03-06T02:54:01.436Z,68.74
2023-03-06T02:56:44.253Z,68.60
2023-03-06T02:59:28.551Z,68.79
2023-03-06T03:02:12.328Z,68.76
2023-03-06T03:04:55.354Z,69.06
2023-03-06T03:07:39.352Z,68.97
2023-03-06T03:10:23.142Z,69.04
2023-03-06T03:13:06.178Z,69.42
2023-03-06T03:15:59.733Z,69.89
2023-03-06T03:18:44.413Z,70.11
2023-03-06T03:21:27.698Z,69.92
2023-03-06T03:24:11.530Z,70.07
2023-03-06T03:26:54.332Z,69.93
2023-03-06T03:29:38.745Z,69.96
2023-03-06T03:32:23.091Z,69.78
2023-03-06T03:35:07.301Z,69.91
2023-03-06T03:37:52.624Z,69.72
2023-03-06T03:40:35.615Z,69.69
2023-03-06T03:43:19.090Z,69.60
2023-03-06T03:46:02.386Z,69.40
2023-03-06T03:48:46.593Z,69.53
2023-03-06T03:51:29.869Z,69.53
2023-03-06T03:54:14.644Z,69.20
2023-03-06T03:57:01.161Z,69.43
2023-03-06T03:59:48.860Z,69.46
2023-03-06T04:02:38.703Z,69.38
2023-03-06T04:05:31.237Z,69.33
2023-03-06T04:08:14.236Z,69.33
2023-03-06T04:10:59.807Z,69.59
2023-03-06T04:13:42.690Z,69.53
2023-03-06T04:16:25.891Z,69.59
2023-03-06T04:19:08.787Z,69.65
2023-03-06T04:21:53.153Z,69.67
2023-03-06T04:24:36.044Z,69.83
2023-03-06T04:27:19.230Z,69.84
2023-03-06T04:30:02.094Z,70.01
2023-03-06T04:32:45.419Z,70.22
2023-03-06T04:35:28.713Z,70.41
2023-03-06T04:38:20.427Z,71.18
2023-03-06T04:41:03.458Z,71.10
2023-03-06T04:43:46.414Z,70.99
2023-03-06T04:46:29.295Z,70.98
2023-03-06T04:49:12.208Z,71.39
2023-03-06T04:51:54.989Z,71.74
2023-03-06T04:54:39.209Z,71.48
2023-03-06T04:57:22.105Z,71.32
2023-03-06T05:00:06.424Z,71.41
2023-03-06T05:02:50.065Z,71.22
2023-03-06T05:05:32.926Z,71.29
2023-03-06T05:08:17.741Z,71.31
2023-03-06T05:11:03.026Z,71.35
2023-03-06T05:13:45.794Z,71.25
2023-03-06T05:16:28.698Z,71.21
2023-03-06T05:19:11.545Z,71.07
2023-03-06T05:21:54.399Z,70.93
2023-03-06T05:24:38.152Z,71.03
2023-03-06T05:27:22.361Z,70.96
2023-03-06T05:30:06.504Z,71.04
2023-03-06T05:32:49.313Z,70.89
2023-03-06T05:35:32.961Z,70.97
2023-03-06T05:38:16.648Z,70.88
2023-03-06T05:40:59.480Z,71.07
2023-03-06T05:43:43.742Z,71.15
2023-03-06T05:46:26.764Z,70.97
2023-03-06T05:49:09.671Z,70.94
2023-03-06T05:51:52.497Z,70.94
2023-03-06T05:54:37.186Z,71.02
2023-03-06T05:57:20.877Z,70.93
2023-03-06T06:00:06.058Z,71.08
2023-03-06T06:02:55.386Z,71.16
2023-03-06T06:05:40.247Z,71.15
2023-03-06T06:08:23.051Z,71.22
2023-03-06T06:11:06.773Z,70.97
2023-03-06T06:13:49.966Z,71.09
2023-03-06T06:16:34.144Z,70.92
2023-03-06T06:19:20.213Z,71.16
2023-03-06T06:22:03.856Z,71.34
2023-03-06T06:24:46.667Z,71.35
2023-03-06T06:27:29.470Z,71.33
2023-03-06T06:30:13.929Z,71.27
2023-03-06T06:32:57.920Z,71.55
2023-03-06T06:35:40.695Z,71.47
2023-03-06T06:38:23.651Z,71.52
2023-03-06T06:41:33.347Z,72.15
2023-03-06T06:44:14.432Z,71.89
2023-03-06T06:50:01.486Z,72.12
2023-03-06T06:52:44.308Z,72.19
2023-03-06T06:55:27.121Z,72.29
2023-03-06T06:58:09.917Z,72.79
2023-03-06T07:00:52.878Z,72.64
2023-03-06T07:03:35.984Z,72.31
2023-03-06T07:06:20.234Z,72.14
2023-03-06T07:09:03.698Z,72.03
2023-03-06T07:11:46.630Z,71.73
2023-03-06T07:14:29.514Z,71.95
2023-03-06T07:17:12.360Z,71.51
2023-03-06T07:19:55.132Z,71.47
2023-03-06T07:22:50.275Z,71.51
2023-03-06T07:25:34.417Z,71.29
2023-03-06T07:28:18.669Z,71.39
2023-03-06T07:31:02.391Z,71.25
2023-03-06T07:33:45.310Z,70.94
2023-03-06T07:36:28.155Z,70.79
2023-03-06T07:39:12.357Z,70.62
2023-03-06T07:41:55.518Z,70.50
2023-03-06T07:44:39.003Z,70.25
2023-03-06T07:47:21.839Z,70.41
2023-03-06T07:50:06.972Z,70.43
2023-03-06T07:52:50.778Z,70.61
2023-03-06T07:55:34.935Z,70.67
2023-03-06T07:58:17.777Z,70.50
2023-03-06T08:01:04.872Z,70.25
2023-03-06T08:03:49.994Z,70.28
2023-03-06T08:06:33.708Z,70.11
2023-03-06T08:09:16.506Z,70.00
2023-03-06T08:12:00.860Z,69.50
2023-03-06T08:14:43.868Z,69.53
2023-03-06T08:17:27.053Z,69.57
2023-03-06T08:20:11.631Z,69.26
2023-03-06T08:22:54.352Z,68.73
2023-03-06T08:25:37.194Z,68.66
2023-03-06T08:28:21.334Z,68.73
2023-03-06T08:31:09.787Z,68.70
2023-03-06T08:33:53.210Z,68.67
2023-03-06T08:36:36.091Z,68.71
2023-03-06T08:39:19.344Z,68.49
2023-03-06T08:42:02.123Z,68.35
2023-03-06T08:44:46.396Z,68.25
2023-03-06T08:47:29.534Z,67.76
2023-03-06T08:50:13.102Z,67.28
2023-03-06T08:52:55.906Z,66.81
2023-03-06T08:55:39.085Z,67.10
2023-03-06T08:58:22.052Z,66.69
2023-03-06T09:01:07.448Z,66.95
2023-03-06T09:03:50.927Z,66.72
2023-03-06T09:06:36.172Z,66.54
2023-03-06T09:09:20.179Z,66.25
2023-03-06T09:12:03.019Z,66.08
2023-03-06T09:14:45.850Z,66.17
2023-03-06T09:17:30.114Z,66.27
2023-03-06T09:20:13.761Z,66.12
2023-03-06T09:22:56.542Z,65.86
2023-03-06T09:25:39.471Z,65.64
2023-03-06T09:28:22.507Z,65.62
2023-03-06T09:31:08.899Z,65.79
2023-03-06T09:33:53.209Z,65.85
2023-03-06T09:36:53.345Z,65.62
2023-03-06T09:39:39.075Z,64.80
2023-03-06T09:42:23.777Z,65.05
2023-03-06T09:45:07.739Z,64.33
2023-03-06T09:47:53.898Z,64.59
2023-03-06T09:50:45.625Z,64.42
2023-03-06T09:53:47.937Z,63.94
2023-03-06T09:56:33.812Z,63.93
2023-03-06T09:59:21.163Z,64.14
2023-03-06T10:02:15.510Z,63.78
2023-03-06T10:05:04.081Z,63.94
2023-03-06T10:07:54.011Z,63.73
2023-03-06T10:10:43.471Z,63.16
2023-03-06T10:13:33.595Z,63.30
2023-03-06T10:16:28.657Z,62.56
2023-03-06T10:19:15.031Z,62.55
2023-03-06T10:22:03.239Z,61.49
2023-03-06T10:24:54.600Z,59.89
2023-03-06T10:27:46.057Z,58.77
2023-03-06T10:30:39.717Z,60.44
2023-03-06T10:33:31.365Z,59.92
2023-03-06T10:36:16.875Z,58.90
2023-03-06T10:39:00.702Z,59.88
2023-03-06T10:41:46.323Z,59.19
2023-03-06T10:44:29.127Z,58.58
2023-03-06T10:47:30.099Z,58.55
2023-03-06T10:50:26.218Z,56.87
2023-03-06T10:53:21.288Z,56.88
2023-03-06T10:56:04.276Z,57.15
2023-03-06T10:58:48.489Z,57.29
2023-03-06T11:01:31.967Z,56.79
2023-03-06T11:04:24.879Z,56.06
2023-03-06T11:07:13.708Z,56.77
2023-03-06T11:10:19.518Z,55.48
2023-03-06T11:13:06.232Z,56.77
2023-03-06T11:15:58.205Z,55.37
2023-03-06T11:18:43.103Z,54.64
2023-03-06T11:21:31.297Z,55.94
2023-03-06T11:24:19.686Z,56.27
2023-03-06T11:27:14.267Z,56.44
2023-03-06T11:30:00.705Z,55.92
2023-03-06T11:32:50.421Z,55.40
2023-03-06T11:35:40.426Z,54.97
2023-03-06T11:38:30.885Z,54.50
2023-03-06T11:41:21.158Z,54.82
2023-03-06T11:44:13.756Z,55.11
2023-03-06T11:47:06.181Z,56.03
2023-03-06T11:49:55.363Z,55.97
2023-03-06T11:52:45.233Z,55.55
2023-03-06T11:55:40.445Z,55.29
2023-03-06T11:58:51.872Z,54.60
2023-03-06T12:01:38.364Z,55.49
2023-03-06T12:04:43.123Z,56.24
2023-03-06T12:07:33.956Z,56.20
2023-03-06T12:10:23.349Z,56.58
2023-03-06T12:16:32.672Z,57.18
2023-03-06T12:19:37.078Z,57.47
2023-03-06T12:22:42.260Z,57.89
2023-03-06T12:25:35.172Z,58.39
2023-03-06T12:28:34.986Z,58.60
2023-03-06T12:31:29.845Z,58.81
2023-03-06T12:34:20.234Z,58.68
2023-03-06T12:37:14.912Z,58.66
2023-03-06T12:40:20.166Z,59.27
2023-03-06T12:43:36.985Z,59.36
2023-03-06T12:46:24.020Z,59.09
2023-03-06T12:49:12.346Z,59.21
2023-03-06T12:51:57.293Z,59.29
2023-03-06T12:54:42.428Z,59.23
2023-03-06T12:57:27.192Z,59.74
2023-03-06T13:00:34.282Z,59.96
2023-03-06T13:03:20.190Z,59.96
2023-03-06T13:06:13.768Z,60.46
2023-03-06T13:09:16.088Z,60.48
2023-03-06T13:12:23.640Z,60.50
2023-03-06T13:15:30.331Z,60.63
2023-03-06T13:18:51.603Z,60.45
2023-03-06T13:22:14.332Z,60.69
2023-03-06T13:25:44.177Z,61.22
2023-03-06T13:28:41.021Z,61.39
2023-03-06T13:31:29.055Z,60.38
2023-03-06T13:34:35.466Z,60.05
2023-03-06T13:37:38.309Z,59.74
2023-03-06T13:40:30.167Z,59.76
2023-03-06T13:43:32.010Z,59.67
2023-03-06T13:46:24.788Z,59.82
2023-03-06T13:49:20.994Z,59.77
2023-03-06T13:52:10.657Z,60.15
2023-03-06T13:55:04.914Z,60.45
2023-03-06T13:58:00.627Z,60.52
2023-03-06T14:01:03.095Z,61.05
2023-03-06T14:04:16.937Z,60.87
2023-03-06T14:07:28.096Z,60.76
2023-03-06T14:10:21.328Z,61.20
2023-03-06T14:13:07.563Z,61.28
2023-03-06T14:15:53.132Z,61.35
2023-03-06T14:18:40.938Z,61.66
2023-03-06T14:21:30.820Z,61.79
2023-03-06T14:24:16.530Z,61.88
2023-03-06T14:26:59.337Z,61.90
2023-03-06T14:29:42.146Z,62.63
2023-03-06T14:32:25.072Z,62.64
2023-03-06T14:35:20.248Z,62.90
2023-03-06T14:38:06.486Z,62.99
2023-03-06T14:40:49.358Z,63.31
2023-03-06T14:43:33.003Z,63.43
2023-03-06T14:46:20.542Z,63.59
2023-03-06T14:49:07.946Z,63.66
2023-03-06T14:51:53.073Z,63.57
2023-03-06T14:54:37.639Z,63.71
2023-03-06T14:57:21.688Z,64.33
2023-03-06T15:00:06.978Z,63.90
2023-03-06T15:02:52.408Z,63.53
2023-03-06T15:05:36.108Z,63.55
2023-03-06T15:08:23.506Z,63.28
2023-03-06T15:11:08.543Z,63.07
2023-03-06T15:14:02.102Z,63.38
2023-03-06T15:16:45.050Z,63.60
2023-03-06T15:19:27.892Z,63.62
2023-03-06T15:22:25.816Z,63.60
2023-03-06T15:25:20.572Z,63.70
2023-03-06T15:28:25.819Z,63.31
2023-03-06T15:31:22.042Z,63.81
2023-03-06T15:34:17.319Z,63.42
2023-03-06T15:37:00.152Z,63.49
2023-03-06T15:39:43.390Z,63.57
2023-03-06T15:42:28.073Z,63.52
2023-03-06T15:45:18.864Z,63.56
2023-03-06T15:48:02.773Z,63.45
2023-03-06T15:50:45.671Z,63.72
2023-03-06T15:53:28.500Z,64.06
2023-03-06T15:56:12.643Z,63.89
2023-03-06T15:58:55.872Z,64.56
2023-03-06T16:01:40.565Z,64.55
2023-03-06T16:04:23.436Z,64.98
2023-03-06T16:07:06.262Z,65.13
2023-03-06T16:09:49.453Z,65.04
2023-03-06T16:12:32.605Z,65.58
2023-03-06T16:15:21.426Z,66.14
2023-03-06T16:18:07.180Z,66.59
2023-03-06T16:20:50.473Z,66.71
2023-03-06T16:23:33.305Z,66.82
2023-03-06T16:26:20.339Z,66.54
2023-03-06T16:29:03.537Z,67.41
2023-03-06T16:31:47.034Z,67.18
2023-03-06T16:34:31.217Z,67.30
2023-03-06T16:37:14.894Z,67.39
2023-03-06T16:39:57.721Z,67.32
2023-03-06T16:42:40.573Z,67.44
2023-03-06T16:45:24.468Z,67.45
2023-03-06T16:48:07.630Z,67.66
2023-03-06T16:50:51.832Z,67.81
2023-03-06T16:53:34.984Z,67.79
2023-03-06T16:56:19.814Z,67.93
2023-03-06T16:59:02.618Z,67.95
2023-03-06T17:01:45.465Z,68.05
2023-03-06T17:04:28.265Z,68.09
2023-03-06T17:07:12.457Z,68.30
2023-03-06T17:09:55.218Z,68.09
2023-03-06T17:12:38.269Z,68.34
2023-03-06T17:15:21.294Z,68.16
2023-03-06T17:18:04.331Z,68.17
2023-03-06T17:20:51.303Z,68.35
2023-03-06T17:23:35.664Z,68.39
2023-03-06T17:26:19.974Z,68.44
2023-03-06T17:29:03.351Z,68.79
2023-03-06T17:31:47.834Z,68.62
2023-03-06T17:34:30.634Z,68.77
2023-03-06T17:37:13.472Z,68.79
2023-03-06T17:39:57.621Z,68.97
2023-03-06T17:42:40.437Z,69.54
2023-03-06T17:45:23.276Z,69.56
2023-03-06T17:48:06.310Z,69.55
2023-03-06T17:50:54.231Z,69.27
2023-03-06T17:53:37.789Z,70.06
2023-03-06T17:56:22.178Z,69.74
2023-03-06T17:59:05.254Z,69.66
2023-03-06T18:01:48.213Z,69.55
2023-03-06T18:04:31.141Z,69.56
2023-03-06T18:07:14.145Z,69.38
2023-03-06T18:09:57.233Z,69.30
2023-03-06T18:12:41.475Z,69.45
2023-03-06T18:15:24.374Z,69.44
2023-03-06T18:18:07.776Z,69.15
2023-03-06T18:20:50.750Z,69.23
2023-03-06T18:23:33.635Z,69.72
2023-03-06T18:26:18.616Z,69.48
2023-03-06T18:29:04.733Z,69.75
2023-03-06T18:31:49.946Z,69.61
2023-03-06T18:34:32.894Z,69.55
2023-03-06T18:37:15.691Z,69.56
2023-03-06T18:39:58.467Z,69.51
2023-03-06T18:42:41.276Z,69.50
2023-03-06T18:45:25.536Z,69.49
2023-03-06T18:48:09.016Z,70.16
2023-03-06T18:50:51.904Z,69.57
2023-03-06T18:53:35.118Z,69.49
2023-03-06T18:56:19.960Z,69.41
2023-03-06T18:59:04.343Z,69.34
2023-03-06T19:01:49.076Z,69.51
2023-03-06T19:04:32.073Z,69.30
2023-03-06T19:07:14.902Z,69.35
2023-03-06T19:09:57.725Z,69.38
2023-03-06T19:12:40.541Z,69.16
2023-03-06T19:15:23.322Z,69.07
2023-03-06T19:18:07.543Z,69.08
2023-03-06T19:20:50.354Z,68.97
2023-03-06T19:23:33.344Z,68.98
2023-03-06T19:26:18.623Z,69.02
2023-03-06T19:29:01.423Z,69.25
2023-03-06T19:31:44.305Z,69.12
2023-03-06T19:34:28.523Z,68.99
2023-03-06T19:37:11.352Z,69.26
2023-03-06T19:39:54.165Z,69.09
2023-03-06T19:42:37.152Z,68.87
2023-03-06T19:45:19.976Z,68.96
2023-03-06T19:48:05.450Z,69.03
2023-03-06T19:50:49.685Z,68.99
2023-03-06T19:53:32.653Z,69.05
2023-03-06T19:56:18.856Z,69.22
2023-03-06T19:59:01.661Z,69.30
2023-03-06T20:01:44.557Z,69.38
2023-03-06T20:04:27.624Z,69.32
2023-03-06T20:07:11.778Z,69.53
2023-03-06T20:09:57.182Z,69.41
2023-03-06T20:12:40.100Z,69.50
2023-03-06T20:15:23.308Z,69.55
2023-03-06T20:18:06.363Z,69.79
2023-03-06T20:20:58.210Z,69.95
2023-03-06T20:23:42.847Z,69.87
2023-03-06T20:26:26.830Z,69.79
2023-03-06T20:29:09.710Z,69.91
2023-03-06T20:31:54.507Z,69.90
2023-03-06T20:34:38.933Z,69.84
2023-03-06T20:37:21.798Z,69.97
2023-03-06T20:40:07.725Z,69.86
2023-03-06T20:42:50.573Z,70.07
2023-03-06T20:45:33.978Z,69.96
2023-03-06T20:48:16.799Z,70.15
2023-03-06T20:51:03.871Z,70.10
2023-03-06T20:53:47.950Z,70.33
2023-03-06T20:56:34.095Z,70.29
2023-03-06T20:59:17.291Z,70.41
2023-03-06T21:02:00.245Z,70.70
2023-03-06T21:04:43.226Z,70.85
2023-03-06T21:07:26.092Z,70.52
2023-03-06T21:10:10.840Z,70.62
2023-03-06T21:12:55.241Z,70.67
2023-03-06T21:15:39.456Z,70.78
2023-03-06T21:18:22.285Z,70.61
2023-03-06T21:21:07.098Z,70.54
2023-03-06T21:23:50.032Z,70.63
2023-03-06T21:26:34.722Z,70.55
2023-03-06T21:29:18.922Z,70.72
2023-03-06T21:32:01.846Z,70.82
2023-03-06T21:34:44.692Z,70.87
2023-03-06T21:37:27.660Z,70.88
2023-03-06T21:40:11.832Z,70.77
2023-03-06T21:42:54.657Z,70.85
2023-03-06T21:45:38.864Z,70.89
2023-03-06T21:48:21.709Z,70.75
2023-03-06T21:51:06.299Z,70.72
2023-03-06T21:53:49.203Z,71.32
2023-03-06T21:56:33.359Z,70.73
2023-03-06T21:59:16.300Z,70.88
2023-03-06T22:02:00.442Z,70.75
2023-03-06T22:04:44.239Z,70.90
2023-03-06T22:07:28.301Z,70.79
2023-03-06T22:10:14.219Z,70.88
2023-03-06T22:12:57.074Z,70.94
2023-03-06T22:15:39.864Z,70.94
2023-03-06T22:18:24.033Z,70.72
2023-03-06T22:21:08.393Z,70.98
2023-03-06T22:23:51.418Z,71.18
2023-03-06T22:26:34.262Z,71.02
2023-03-06T22:29:17.058Z,71.08
2023-03-06T22:31:59.974Z,71.33
2023-03-06T22:34:44.156Z,71.03
2023-03-06T22:37:26.970Z,71.15
2023-03-06T22:40:11.261Z,70.95
2023-03-06T22:42:54.090Z,70.93
2023-03-06T22:45:36.849Z,71.08
2023-03-06T22:48:19.963Z,71.09
2023-03-06T22:51:05.585Z,71.04
2023-03-06T22:53:49.378Z,71.02
2023-03-06T22:56:32.421Z,71.07
2023-03-06T22:59:15.236Z,71.28
2023-03-06T23:01:58.060Z,71.34
2023-03-06T23:04:41.036Z,71.49
2023-03-06T23:07:25.237Z,71.40
2023-03-06T23:10:16.490Z,71.47
2023-03-06T23:13:18.063Z,71.58
2023-03-06T23:16:19.280Z,71.52
2023-03-06T23:19:20.538Z,71.57
2023-03-06T23:22:22.149Z,71.66
2023-03-06T23:25:24.865Z,71.76
2023-03-06T23:28:07.744Z,71.69
2023-03-06T23:30:51.044Z,71.53
2023-03-06T23:33:33.861Z,72.08
2023-03-06T23:36:18.953Z,72.18
2023-03-06T23:39:01.849Z,72.22
2023-03-06T23:41:46.086Z,72.13
2023-03-06T23:44:29.029Z,72.34
2023-03-06T23:47:11.881Z,72.51
2023-03-06T23:49:54.703Z,72.63
2023-03-06T23:52:38.833Z,72.42
2023-03-06T23:55:21.742Z,72.59
2023-03-06T23:58:05.928Z,72.48
